Chautauqua, Illinois
Current Conditions -  °F | °C
As of 8:54 PM on Wednesday 26 Nov 2014 (Local Time) from KSET Reporting Station
Haze Haze  
Wind Chill: 33°   Ceiling: 500
Heat Index: 33°   Visibility: 1.2mi
Dew Point: 32°   Wind: 3mph
Humidity: 96%   Direction: 50°NE
Pressure: 30.1"   Gusts: NA
Location:  38.9749°N, 90.3301°W
Report Text: KSET 270254Z AUTO 05003KT 1 1/4SM BR OVC005 01/00 A3010 RMK AO2 SLP197 60001 T00060000 53021
Loading
Personal Weather Stations






























Interactive Weather Map New forecast layout! Learn more

10-Day Weather Forecast

Advertisements
Track Severe Weather on mobile